sensor_id;sensor_type;location;lat;lon;timestamp;P1;durP1;ratioP1;P2;durP2;ratioP2
14377;SDS011;7272;53.668;9.578;2023-06-22T00:02:10;9.33;;;8.53;;
14377;SDS011;7272;53.668;9.578;2023-06-22T00:05:11;12.25;;;10.70;;
14377;SDS011;7272;53.668;9.578;2023-06-22T00:08:13;9.77;;;8.87;;
14377;SDS011;7272;53.668;9.578;2023-06-22T00:11:14;10.40;;;9.47;;
14377;SDS011;7272;53.668;9.578;2023-06-22T00:14:16;9.17;;;8.37;;
14377;SDS011;7272;53.668;9.578;2023-06-22T00:17:17;11.60;;;9.33;;
14377;SDS011;7272;53.668;9.578;2023-06-22T00:20:19;10.60;;;8.60;;
14377;SDS011;7272;53.668;9.578;2023-06-22T00:23:20;9.37;;;8.57;;
14377;SDS011;7272;53.668;9.578;2023-06-22T00:26:23;15.13;;;12.40;;
14377;SDS011;7272;53.668;9.578;2023-06-22T00:29:25;11.23;;;10.10;;
14377;SDS011;7272;53.668;9.578;2023-06-22T00:32:27;13.30;;;12.17;;
14377;SDS011;7272;53.668;9.578;2023-06-22T00:35:28;6.90;;;6.20;;
14377;SDS011;7272;53.668;9.578;2023-06-22T00:38:29;6.40;;;5.73;;
14377;SDS011;7272;53.668;9.578;2023-06-22T00:41:30;8.40;;;7.60;;
14377;SDS011;7272;53.668;9.578;2023-06-22T00:44:31;7.73;;;7.13;;
14377;SDS011;7272;53.668;9.578;2023-06-22T00:47:34;12.15;;;10.95;;
14377;SDS011;7272;53.668;9.578;2023-06-22T00:50:38;8.10;;;7.03;;
14377;SDS011;7272;53.668;9.578;2023-06-22T00:53:40;9.33;;;8.43;;
14377;SDS011;7272;53.668;9.578;2023-06-22T00:56:44;9.77;;;8.90;;
14377;SDS011;7272;53.668;9.578;2023-06-22T00:59:46;9.13;;;8.23;;
14377;SDS011;7272;53.668;9.578;2023-06-22T01:02:49;7.57;;;6.87;;
14377;SDS011;7272;53.668;9.578;2023-06-22T01:05:52;6.80;;;6.10;;
14377;SDS011;7272;53.668;9.578;2023-06-22T01:08:57;11.60;;;10.35;;
14377;SDS011;7272;53.668;9.578;2023-06-22T01:12:04;9.67;;;8.33;;
14377;SDS011;7272;53.668;9.578;2023-06-22T01:15:08;10.53;;;8.57;;
14377;SDS011;7272;53.668;9.578;2023-06-22T01:18:12;10.13;;;8.73;;
14377;SDS011;7272;53.668;9.578;2023-06-22T01:21:17;8.57;;;7.30;;
14377;SDS011;7272;53.668;9.578;2023-06-22T01:24:23;6.93;;;6.23;;
14377;SDS011;7272;53.668;9.578;2023-06-22T01:27:31;6.37;;;5.80;;
14377;SDS011;7272;53.668;9.578;2023-06-22T01:30:43;10.15;;;9.35;;
14377;SDS011;7272;53.668;9.578;2023-06-22T01:33:48;9.40;;;8.50;;
14377;SDS011;7272;53.668;9.578;2023-06-22T01:36:58;10.10;;;8.80;;
14377;SDS011;7272;53.668;9.578;2023-06-22T01:40:04;10.33;;;9.33;;
14377;SDS011;7272;53.668;9.578;2023-06-22T01:43:07;9.20;;;8.40;;
14377;SDS011;7272;53.668;9.578;2023-06-22T01:46:10;8.47;;;7.77;;
14377;SDS011;7272;53.668;9.578;2023-06-22T01:49:13;9.03;;;8.13;;
14377;SDS011;7272;53.668;9.578;2023-06-22T01:52:14;10.00;;;9.27;;
14377;SDS011;7272;53.668;9.578;2023-06-22T01:55:16;10.83;;;9.43;;
14377;SDS011;7272;53.668;9.578;2023-06-22T01:58:17;7.57;;;6.97;;
14377;SDS011;7272;53.668;9.578;2023-06-22T02:01:23;7.07;;;6.37;;
14377;SDS011;7272;53.668;9.578;2023-06-22T02:04:31;9.57;;;8.63;;
14377;SDS011;7272;53.668;9.578;2023-06-22T02:07:37;12.00;;;7.93;;
14377;SDS011;7272;53.668;9.578;2023-06-22T02:10:43;14.00;;;8.63;;
14377;SDS011;7272;53.668;9.578;2023-06-22T02:13:45;9.50;;;7.57;;
14377;SDS011;7272;53.668;9.578;2023-06-22T02:16:50;10.30;;;9.23;;
14377;SDS011;7272;53.668;9.578;2023-06-22T02:19:52;9.38;;;8.52;;
14377;SDS011;7272;53.668;9.578;2023-06-22T02:22:54;6.70;;;6.13;;
14377;SDS011;7272;53.668;9.578;2023-06-22T02:25:55;8.60;;;7.00;;
14377;SDS011;7272;53.668;9.578;2023-06-22T02:28:58;8.10;;;7.30;;
14377;SDS011;7272;53.668;9.578;2023-06-22T02:32:00;9.37;;;8.53;;
14377;SDS011;7272;53.668;9.578;2023-06-22T02:35:01;9.33;;;7.83;;
14377;SDS011;7272;53.668;9.578;2023-06-22T02:38:04;14.02;;;12.63;;
14377;SDS011;7272;53.668;9.578;2023-06-22T02:41:05;13.95;;;10.23;;
14377;SDS011;7272;53.668;9.578;2023-06-22T02:44:07;6.60;;;5.77;;
14377;SDS011;7272;53.668;9.578;2023-06-22T02:47:09;9.17;;;7.17;;
14377;SDS011;7272;53.668;9.578;2023-06-22T02:50:11;9.93;;;7.37;;
14377;SDS011;7272;53.668;9.578;2023-06-22T02:53:12;11.40;;;10.40;;
14377;SDS011;7272;53.668;9.578;2023-06-22T02:56:18;8.93;;;8.13;;
14377;SDS011;7272;53.668;9.578;2023-06-22T02:59:25;13.87;;;12.77;;
14377;SDS011;7272;53.668;9.578;2023-06-22T03:02:34;13.17;;;12.10;;
14377;SDS011;7272;53.668;9.578;2023-06-22T03:05:36;9.57;;;8.67;;
14377;SDS011;7272;53.668;9.578;2023-06-22T03:08:37;11.57;;;10.57;;
14377;SDS011;7272;53.668;9.578;2023-06-22T03:11:39;6.60;;;6.00;;
14377;SDS011;7272;53.668;9.578;2023-06-22T03:14:40;13.00;;;11.73;;
14377;SDS011;7272;53.668;9.578;2023-06-22T03:17:42;8.37;;;7.67;;
14377;SDS011;7272;53.668;9.578;2023-06-22T03:20:43;14.18;;;12.98;;
14377;SDS011;7272;53.668;9.578;2023-06-22T03:23:44;13.05;;;11.95;;
14377;SDS011;7272;53.668;9.578;2023-06-22T03:26:46;14.10;;;12.67;;
14377;SDS011;7272;53.668;9.578;2023-06-22T03:29:47;9.73;;;8.83;;
14377;SDS011;7272;53.668;9.578;2023-06-22T03:32:49;9.83;;;8.87;;
14377;SDS011;7272;53.668;9.578;2023-06-22T03:35:50;9.03;;;8.33;;
14377;SDS011;7272;53.668;9.578;2023-06-22T03:38:51;10.33;;;9.40;;
14377;SDS011;7272;53.668;9.578;2023-06-22T03:41:53;14.27;;;12.98;;
14377;SDS011;7272;53.668;9.578;2023-06-22T03:44:54;15.32;;;13.93;;
14377;SDS011;7272;53.668;9.578;2023-06-22T03:47:56;11.70;;;10.43;;
14377;SDS011;7272;53.668;9.578;2023-06-22T03:50:58;13.43;;;12.00;;
14377;SDS011;7272;53.668;9.578;2023-06-22T03:54:00;10.53;;;9.53;;
14377;SDS011;7272;53.668;9.578;2023-06-22T03:57:01;12.67;;;11.37;;
14377;SDS011;7272;53.668;9.578;2023-06-22T04:00:03;12.60;;;11.40;;
14377;SDS011;7272;53.668;9.578;2023-06-22T04:03:13;18.43;;;16.47;;
14377;SDS011;7272;53.668;9.578;2023-06-22T04:06:15;22.40;;;20.38;;
14377;SDS011;7272;53.668;9.578;2023-06-22T04:09:16;13.43;;;12.20;;
14377;SDS011;7272;53.668;9.578;2023-06-22T04:12:17;13.90;;;12.57;;
14377;SDS011;7272;53.668;9.578;2023-06-22T04:15:19;14.57;;;12.53;;
14377;SDS011;7272;53.668;9.578;2023-06-22T04:18:21;12.17;;;10.93;;
14377;SDS011;7272;53.668;9.578;2023-06-22T04:21:22;14.70;;;13.20;;
14377;SDS011;7272;53.668;9.578;2023-06-22T04:24:23;11.47;;;10.27;;
14377;SDS011;7272;53.668;9.578;2023-06-22T04:27:24;18.23;;;16.63;;
14377;SDS011;7272;53.668;9.578;2023-06-22T04:30:25;16.37;;;14.77;;
14377;SDS011;7272;53.668;9.578;2023-06-22T04:33:27;11.50;;;10.40;;
14377;SDS011;7272;53.668;9.578;2023-06-22T04:36:29;13.20;;;11.90;;
14377;SDS011;7272;53.668;9.578;2023-06-22T04:39:31;18.17;;;16.27;;
14377;SDS011;7272;53.668;9.578;2023-06-22T04:42:33;15.32;;;13.85;;
14377;SDS011;7272;53.668;9.578;2023-06-22T04:45:35;9.90;;;9.07;;
14377;SDS011;7272;53.668;9.578;2023-06-22T04:48:38;13.83;;;12.63;;
14377;SDS011;7272;53.668;9.578;2023-06-22T04:51:40;11.70;;;10.47;;
14377;SDS011;7272;53.668;9.578;2023-06-22T04:54:42;14.97;;;13.57;;
14377;SDS011;7272;53.668;9.578;2023-06-22T04:57:48;16.03;;;14.63;;
14377;SDS011;7272;53.668;9.578;2023-06-22T05:00:49;11.60;;;10.50;;
14377;SDS011;7272;53.668;9.578;2023-06-22T05:03:52;15.13;;;13.53;;
14377;SDS011;7272;53.668;9.578;2023-06-22T05:06:55;19.77;;;17.98;;
14377;SDS011;7272;53.668;9.578;2023-06-22T05:09:56;18.45;;;16.85;;
14377;SDS011;7272;53.668;9.578;2023-06-22T05:12:58;12.93;;;11.63;;
14377;SDS011;7272;53.668;9.578;2023-06-22T05:15:59;13.63;;;12.23;;
14377;SDS011;7272;53.668;9.578;2023-06-22T05:19:02;14.17;;;12.23;;
14377;SDS011;7272;53.668;9.578;2023-06-22T05:22:04;12.97;;;11.77;;
14377;SDS011;7272;53.668;9.578;2023-06-22T05:25:08;12.90;;;11.30;;
14377;SDS011;7272;53.668;9.578;2023-06-22T05:28:10;10.60;;;9.50;;
14377;SDS011;7272;53.668;9.578;2023-06-22T05:31:12;14.80;;;13.60;;
14377;SDS011;7272;53.668;9.578;2023-06-22T05:34:14;11.93;;;10.77;;
14377;SDS011;7272;53.668;9.578;2023-06-22T05:37:16;11.77;;;10.77;;
14377;SDS011;7272;53.668;9.578;2023-06-22T05:40:17;10.67;;;9.67;;
14377;SDS011;7272;53.668;9.578;2023-06-22T05:43:18;13.00;;;11.80;;
14377;SDS011;7272;53.668;9.578;2023-06-22T05:46:19;12.35;;;11.15;;
14377;SDS011;7272;53.668;9.578;2023-06-22T05:49:21;13.83;;;12.43;;
14377;SDS011;7272;53.668;9.578;2023-06-22T05:52:24;17.27;;;15.77;;
14377;SDS011;7272;53.668;9.578;2023-06-22T05:55:25;11.97;;;10.90;;
14377;SDS011;7272;53.668;9.578;2023-06-22T05:58:27;12.03;;;10.37;;
14377;SDS011;7272;53.668;9.578;2023-06-22T06:01:28;10.93;;;10.03;;
14377;SDS011;7272;53.668;9.578;2023-06-22T06:04:32;12.73;;;11.43;;
14377;SDS011;7272;53.668;9.578;2023-06-22T06:07:33;12.48;;;11.38;;
14377;SDS011;7272;53.668;9.578;2023-06-22T06:10:34;9.70;;;8.90;;
14377;SDS011;7272;53.668;9.578;2023-06-22T06:13:36;9.13;;;8.30;;
14377;SDS011;7272;53.668;9.578;2023-06-22T06:16:37;9.50;;;8.70;;
14377;SDS011;7272;53.668;9.578;2023-06-22T06:19:39;9.03;;;8.23;;
14377;SDS011;7272;53.668;9.578;2023-06-22T06:22:40;9.43;;;8.53;;
14377;SDS011;7272;53.668;9.578;2023-06-22T06:25:43;7.60;;;7.00;;
14377;SDS011;7272;53.668;9.578;2023-06-22T06:28:44;8.27;;;6.30;;
14377;SDS011;7272;53.668;9.578;2023-06-22T06:31:46;6.93;;;6.32;;
14377;SDS011;7272;53.668;9.578;2023-06-22T06:34:49;5.67;;;5.17;;
14377;SDS011;7272;53.668;9.578;2023-06-22T06:37:50;5.57;;;5.07;;
14377;SDS011;7272;53.668;9.578;2023-06-22T06:40:51;6.37;;;5.77;;
14377;SDS011;7272;53.668;9.578;2023-06-22T06:43:52;5.70;;;5.20;;
14377;SDS011;7272;53.668;9.578;2023-06-22T06:46:54;4.97;;;4.57;;
14377;SDS011;7272;53.668;9.578;2023-06-22T06:49:55;6.30;;;5.80;;
14377;SDS011;7272;53.668;9.578;2023-06-22T06:52:57;5.00;;;4.53;;
14377;SDS011;7272;53.668;9.578;2023-06-22T06:55:59;4.03;;;3.67;;
14377;SDS011;7272;53.668;9.578;2023-06-22T06:59:00;4.53;;;3.80;;
14377;SDS011;7272;53.668;9.578;2023-06-22T07:02:02;3.93;;;3.53;;
14377;SDS011;7272;53.668;9.578;2023-06-22T07:05:07;3.33;;;3.10;;
14377;SDS011;7272;53.668;9.578;2023-06-22T07:08:09;3.40;;;3.10;;
14377;SDS011;7272;53.668;9.578;2023-06-22T07:11:10;2.83;;;2.60;;
14377;SDS011;7272;53.668;9.578;2023-06-22T07:14:12;3.50;;;3.20;;
14377;SDS011;7272;53.668;9.578;2023-06-22T07:17:13;4.40;;;3.80;;
14377;SDS011;7272;53.668;9.578;2023-06-22T07:20:15;3.77;;;3.47;;
14377;SDS011;7272;53.668;9.578;2023-06-22T07:23:16;3.77;;;3.47;;
14377;SDS011;7272;53.668;9.578;2023-06-22T07:26:18;3.50;;;3.20;;
14377;SDS011;7272;53.668;9.578;2023-06-22T07:29:19;3.83;;;3.37;;
14377;SDS011;7272;53.668;9.578;2023-06-22T07:32:21;3.37;;;3.07;;
14377;SDS011;7272;53.668;9.578;2023-06-22T07:35:23;3.50;;;3.20;;
14377;SDS011;7272;53.668;9.578;2023-06-22T07:38:24;3.80;;;3.50;;
14377;SDS011;7272;53.668;9.578;2023-06-22T07:41:25;3.23;;;2.90;;
14377;SDS011;7272;53.668;9.578;2023-06-22T07:44:26;2.93;;;2.73;;
14377;SDS011;7272;53.668;9.578;2023-06-22T07:47:27;2.90;;;2.70;;
14377;SDS011;7272;53.668;9.578;2023-06-22T07:50:29;3.60;;;2.70;;
14377;SDS011;7272;53.668;9.578;2023-06-22T07:53:31;2.72;;;2.53;;
14377;SDS011;7272;53.668;9.578;2023-06-22T07:56:32;3.22;;;3.03;;
14377;SDS011;7272;53.668;9.578;2023-06-22T07:59:33;3.17;;;2.88;;
14377;SDS011;7272;53.668;9.578;2023-06-22T08:02:34;2.83;;;2.50;;
14377;SDS011;7272;53.668;9.578;2023-06-22T08:05:36;2.78;;;2.58;;
14377;SDS011;7272;53.668;9.578;2023-06-22T08:08:37;2.97;;;2.78;;
14377;SDS011;7272;53.668;9.578;2023-06-22T08:11:39;2.50;;;2.30;;
14377;SDS011;7272;53.668;9.578;2023-06-22T08:14:41;3.38;;;3.08;;
14377;SDS011;7272;53.668;9.578;2023-06-22T08:17:43;3.28;;;2.90;;
14377;SDS011;7272;53.668;9.578;2023-06-22T08:20:45;3.40;;;2.92;;
14377;SDS011;7272;53.668;9.578;2023-06-22T08:23:47;3.05;;;2.70;;
14377;SDS011;7272;53.668;9.578;2023-06-22T08:26:51;2.80;;;2.60;;
14377;SDS011;7272;53.668;9.578;2023-06-22T08:29:52;2.40;;;2.20;;
14377;SDS011;7272;53.668;9.578;2023-06-22T08:32:58;2.70;;;2.50;;
14377;SDS011;7272;53.668;9.578;2023-06-22T08:36:00;2.83;;;2.17;;
14377;SDS011;7272;53.668;9.578;2023-06-22T08:39:01;2.97;;;2.75;;
14377;SDS011;7272;53.668;9.578;2023-06-22T08:42:03;3.20;;;2.70;;
14377;SDS011;7272;53.668;9.578;2023-06-22T08:45:05;3.05;;;2.05;;
14377;SDS011;7272;53.668;9.578;2023-06-22T08:48:07;2.40;;;2.28;;
14377;SDS011;7272;53.668;9.578;2023-06-22T08:51:09;3.22;;;2.20;;
14377;SDS011;7272;53.668;9.578;2023-06-22T08:54:10;2.38;;;2.03;;
14377;SDS011;7272;53.668;9.578;2023-06-22T08:57:11;2.25;;;2.05;;
14377;SDS011;7272;53.668;9.578;2023-06-22T09:00:13;2.90;;;2.65;;
14377;SDS011;7272;53.668;9.578;2023-06-22T09:03:17;3.28;;;3.08;;
14377;SDS011;7272;53.668;9.578;2023-06-22T09:06:21;3.28;;;2.97;;
14377;SDS011;7272;53.668;9.578;2023-06-22T09:09:22;3.60;;;3.30;;
14377;SDS011;7272;53.668;9.578;2023-06-22T09:12:23;2.58;;;2.40;;
14377;SDS011;7272;53.668;9.578;2023-06-22T09:15:27;2.28;;;2.17;;
14377;SDS011;7272;53.668;9.578;2023-06-22T09:18:28;3.10;;;2.80;;
14377;SDS011;7272;53.668;9.578;2023-06-22T09:21:30;2.80;;;2.58;;
14377;SDS011;7272;53.668;9.578;2023-06-22T09:24:31;2.78;;;2.58;;
14377;SDS011;7272;53.668;9.578;2023-06-22T09:27:33;2.50;;;2.30;;
14377;SDS011;7272;53.668;9.578;2023-06-22T09:30:34;2.30;;;2.03;;
14377;SDS011;7272;53.668;9.578;2023-06-22T09:33:35;1.67;;;1.58;;
14377;SDS011;7272;53.668;9.578;2023-06-22T09:36:38;2.22;;;2.03;;
14377;SDS011;7272;53.668;9.578;2023-06-22T09:39:42;2.30;;;2.10;;
14377;SDS011;7272;53.668;9.578;2023-06-22T09:42:43;2.72;;;2.42;;
14377;SDS011;7272;53.668;9.578;2023-06-22T09:45:44;2.00;;;1.90;;
14377;SDS011;7272;53.668;9.578;2023-06-22T09:48:45;2.95;;;2.13;;
14377;SDS011;7272;53.668;9.578;2023-06-22T09:51:47;2.38;;;2.17;;
14377;SDS011;7272;53.668;9.578;2023-06-22T09:54:49;2.28;;;2.17;;
14377;SDS011;7272;53.668;9.578;2023-06-22T09:57:51;2.83;;;2.63;;
14377;SDS011;7272;53.668;9.578;2023-06-22T10:00:52;3.08;;;2.60;;
14377;SDS011;7272;53.668;9.578;2023-06-22T10:03:55;3.40;;;2.67;;
14377;SDS011;7272;53.668;9.578;2023-06-22T10:06:57;3.17;;;2.75;;
14377;SDS011;7272;53.668;9.578;2023-06-22T10:09:58;3.70;;;3.40;;
14377;SDS011;7272;53.668;9.578;2023-06-22T10:13:06;4.20;;;3.90;;
14377;SDS011;7272;53.668;9.578;2023-06-22T10:16:09;2.92;;;2.50;;
14377;SDS011;7272;53.668;9.578;2023-06-22T10:19:10;3.10;;;2.90;;
14377;SDS011;7272;53.668;9.578;2023-06-22T10:22:12;3.83;;;3.38;;
14377;SDS011;7272;53.668;9.578;2023-06-22T10:25:13;2.95;;;2.75;;
14377;SDS011;7272;53.668;9.578;2023-06-22T10:28:15;2.75;;;2.55;;
14377;SDS011;7272;53.668;9.578;2023-06-22T10:31:16;3.10;;;2.90;;
14377;SDS011;7272;53.668;9.578;2023-06-22T10:34:17;3.25;;;2.95;;
14377;SDS011;7272;53.668;9.578;2023-06-22T10:37:19;3.35;;;3.13;;
14377;SDS011;7272;53.668;9.578;2023-06-22T10:40:20;2.80;;;2.58;;
14377;SDS011;7272;53.668;9.578;2023-06-22T10:43:22;2.83;;;2.63;;
14377;SDS011;7272;53.668;9.578;2023-06-22T10:46:23;3.33;;;2.60;;
14377;SDS011;7272;53.668;9.578;2023-06-22T10:49:25;4.45;;;3.40;;
14377;SDS011;7272;53.668;9.578;2023-06-22T10:52:27;3.80;;;3.08;;
14377;SDS011;7272;53.668;9.578;2023-06-22T10:55:28;2.58;;;2.38;;
14377;SDS011;7272;53.668;9.578;2023-06-22T10:58:29;3.60;;;3.13;;
14377;SDS011;7272;53.668;9.578;2023-06-22T11:01:30;2.33;;;2.05;;
14377;SDS011;7272;53.668;9.578;2023-06-22T11:04:33;3.70;;;2.95;;
14377;SDS011;7272;53.668;9.578;2023-06-22T11:07:36;3.22;;;3.03;;
14377;SDS011;7272;53.668;9.578;2023-06-22T11:10:38;3.63;;;3.33;;
14377;SDS011;7272;53.668;9.578;2023-06-22T11:13:39;3.20;;;2.90;;
14377;SDS011;7272;53.668;9.578;2023-06-22T11:16:40;3.47;;;3.17;;
14377;SDS011;7272;53.668;9.578;2023-06-22T11:19:42;2.95;;;2.75;;
14377;SDS011;7272;53.668;9.578;2023-06-22T11:22:43;3.30;;;3.00;;
14377;SDS011;7272;53.668;9.578;2023-06-22T11:25:45;3.60;;;3.20;;
14377;SDS011;7272;53.668;9.578;2023-06-22T11:28:46;4.30;;;3.95;;
14377;SDS011;7272;53.668;9.578;2023-06-22T11:31:47;3.25;;;3.05;;
14377;SDS011;7272;53.668;9.578;2023-06-22T11:34:49;3.17;;;2.88;;
14377;SDS011;7272;53.668;9.578;2023-06-22T11:37:50;3.28;;;2.58;;
14377;SDS011;7272;53.668;9.578;2023-06-22T11:40:52;3.47;;;3.17;;
14377;SDS011;7272;53.668;9.578;2023-06-22T11:43:53;3.13;;;2.92;;
14377;SDS011;7272;53.668;9.578;2023-06-22T11:46:54;4.15;;;3.20;;
14377;SDS011;7272;53.668;9.578;2023-06-22T11:49:55;3.80;;;3.50;;
14377;SDS011;7272;53.668;9.578;2023-06-22T11:52:57;3.78;;;2.88;;
14377;SDS011;7272;53.668;9.578;2023-06-22T11:56:00;2.70;;;2.50;;
14377;SDS011;7272;53.668;9.578;2023-06-22T11:59:01;3.40;;;3.10;;
14377;SDS011;7272;53.668;9.578;2023-06-22T12:02:03;3.60;;;3.30;;
14377;SDS011;7272;53.668;9.578;2023-06-22T12:05:06;3.28;;;3.08;;
14377;SDS011;7272;53.668;9.578;2023-06-22T12:08:08;3.17;;;2.88;;
14377;SDS011;7272;53.668;9.578;2023-06-22T12:11:10;3.75;;;3.45;;
14377;SDS011;7272;53.668;9.578;2023-06-22T12:14:11;3.35;;;3.15;;
14377;SDS011;7272;53.668;9.578;2023-06-22T12:17:12;3.88;;;3.58;;
14377;SDS011;7272;53.668;9.578;2023-06-22T12:20:15;3.63;;;3.33;;
14377;SDS011;7272;53.668;9.578;2023-06-22T12:23:17;3.60;;;3.30;;
14377;SDS011;7272;53.668;9.578;2023-06-22T12:26:19;3.47;;;3.17;;
14377;SDS011;7272;53.668;9.578;2023-06-22T12:29:21;3.65;;;3.10;;
14377;SDS011;7272;53.668;9.578;2023-06-22T12:32:22;3.45;;;3.15;;
14377;SDS011;7272;53.668;9.578;2023-06-22T12:35:24;4.18;;;3.78;;
14377;SDS011;7272;53.668;9.578;2023-06-22T12:38:26;3.75;;;3.55;;
14377;SDS011;7272;53.668;9.578;2023-06-22T12:41:27;3.70;;;3.50;;
14377;SDS011;7272;53.668;9.578;2023-06-22T12:44:28;3.92;;;3.20;;
14377;SDS011;7272;53.668;9.578;2023-06-22T12:47:29;4.18;;;3.78;;
14377;SDS011;7272;53.668;9.578;2023-06-22T12:50:31;3.92;;;3.63;;
14377;SDS011;7272;53.668;9.578;2023-06-22T12:53:33;3.60;;;3.40;;
14377;SDS011;7272;53.668;9.578;2023-06-22T12:56:34;3.72;;;3.42;;
14377;SDS011;7272;53.668;9.578;2023-06-22T12:59:35;3.60;;;3.28;;
14377;SDS011;7272;53.668;9.578;2023-06-22T13:02:36;3.90;;;3.60;;
14377;SDS011;7272;53.668;9.578;2023-06-22T13:05:37;3.60;;;3.28;;
14377;SDS011;7272;53.668;9.578;2023-06-22T13:08:39;3.60;;;3.30;;
14377;SDS011;7272;53.668;9.578;2023-06-22T13:11:40;3.50;;;3.20;;
14377;SDS011;7272;53.668;9.578;2023-06-22T13:14:42;3.50;;;3.30;;
14377;SDS011;7272;53.668;9.578;2023-06-22T13:17:43;3.30;;;3.10;;
14377;SDS011;7272;53.668;9.578;2023-06-22T13:20:45;4.10;;;3.80;;
14377;SDS011;7272;53.668;9.578;2023-06-22T13:23:47;3.58;;;3.28;;
14377;SDS011;7272;53.668;9.578;2023-06-22T13:26:48;3.78;;;3.50;;
14377;SDS011;7272;53.668;9.578;2023-06-22T13:29:49;3.10;;;2.90;;
14377;SDS011;7272;53.668;9.578;2023-06-22T13:32:51;3.75;;;3.50;;
14377;SDS011;7272;53.668;9.578;2023-06-22T13:35:52;3.53;;;3.33;;
14377;SDS011;7272;53.668;9.578;2023-06-22T13:38:53;4.20;;;3.90;;
14377;SDS011;7272;53.668;9.578;2023-06-22T13:41:55;3.83;;;3.22;;
14377;SDS011;7272;53.668;9.578;2023-06-22T13:44:56;4.05;;;3.85;;
14377;SDS011;7272;53.668;9.578;2023-06-22T13:47:57;4.18;;;3.88;;
14377;SDS011;7272;53.668;9.578;2023-06-22T13:50:58;3.70;;;3.40;;
14377;SDS011;7272;53.668;9.578;2023-06-22T13:54:00;3.78;;;3.47;;
14377;SDS011;7272;53.668;9.578;2023-06-22T13:57:01;4.37;;;4.07;;
14377;SDS011;7272;53.668;9.578;2023-06-22T14:00:03;4.20;;;3.80;;
14377;SDS011;7272;53.668;9.578;2023-06-22T14:03:12;3.65;;;3.45;;
14377;SDS011;7272;53.668;9.578;2023-06-22T14:06:16;4.03;;;3.72;;
14377;SDS011;7272;53.668;9.578;2023-06-22T14:09:18;4.00;;;3.70;;
14377;SDS011;7272;53.668;9.578;2023-06-22T14:12:19;3.85;;;3.47;;
14377;SDS011;7272;53.668;9.578;2023-06-22T14:15:20;4.25;;;3.88;;
14377;SDS011;7272;53.668;9.578;2023-06-22T14:18:21;4.15;;;3.60;;
14377;SDS011;7272;53.668;9.578;2023-06-22T14:21:23;3.83;;;3.50;;
14377;SDS011;7272;53.668;9.578;2023-06-22T14:24:24;4.15;;;3.85;;
14377;SDS011;7272;53.668;9.578;2023-06-22T14:27:26;3.67;;;3.38;;
14377;SDS011;7272;53.668;9.578;2023-06-22T14:30:27;3.90;;;3.60;;
14377;SDS011;7272;53.668;9.578;2023-06-22T14:33:28;5.07;;;3.80;;
14377;SDS011;7272;53.668;9.578;2023-06-22T14:36:30;4.20;;;3.88;;
14377;SDS011;7272;53.668;9.578;2023-06-22T14:39:31;3.53;;;3.33;;
14377;SDS011;7272;53.668;9.578;2023-06-22T14:42:33;3.20;;;3.00;;
14377;SDS011;7272;53.668;9.578;2023-06-22T14:45:34;3.38;;;3.17;;
14377;SDS011;7272;53.668;9.578;2023-06-22T14:48:35;3.63;;;3.33;;
14377;SDS011;7272;53.668;9.578;2023-06-22T14:51:36;3.92;;;3.60;;
14377;SDS011;7272;53.668;9.578;2023-06-22T14:54:38;3.70;;;3.40;;
14377;SDS011;7272;53.668;9.578;2023-06-22T14:57:39;3.53;;;3.22;;
14377;SDS011;7272;53.668;9.578;2023-06-22T15:00:40;3.80;;;3.45;;
14377;SDS011;7272;53.668;9.578;2023-06-22T15:03:41;3.72;;;3.53;;
14377;SDS011;7272;53.668;9.578;2023-06-22T15:06:42;3.58;;;3.28;;
14377;SDS011;7272;53.668;9.578;2023-06-22T15:09:46;3.47;;;3.17;;
14377;SDS011;7272;53.668;9.578;2023-06-22T15:12:47;4.50;;;4.18;;
14377;SDS011;7272;53.668;9.578;2023-06-22T15:15:48;3.50;;;3.28;;
14377;SDS011;7272;53.668;9.578;2023-06-22T15:18:49;3.92;;;3.72;;
14377;SDS011;7272;53.668;9.578;2023-06-22T15:21:51;4.53;;;4.22;;
14377;SDS011;7272;53.668;9.578;2023-06-22T15:24:53;3.70;;;3.40;;
14377;SDS011;7272;53.668;9.578;2023-06-22T15:27:54;4.28;;;3.97;;
14377;SDS011;7272;53.668;9.578;2023-06-22T15:30:55;3.92;;;3.63;;
14377;SDS011;7272;53.668;9.578;2023-06-22T15:33:56;3.60;;;3.30;;
14377;SDS011;7272;53.668;9.578;2023-06-22T15:36:57;4.60;;;3.58;;
14377;SDS011;7272;53.668;9.578;2023-06-22T15:40:00;4.57;;;4.15;;
14377;SDS011;7272;53.668;9.578;2023-06-22T15:43:01;4.45;;;4.15;;
14377;SDS011;7272;53.668;9.578;2023-06-22T15:46:02;4.55;;;4.25;;
14377;SDS011;7272;53.668;9.578;2023-06-22T15:49:04;4.78;;;4.45;;
14377;SDS011;7272;53.668;9.578;2023-06-22T15:52:06;4.78;;;4.38;;
14377;SDS011;7272;53.668;9.578;2023-06-22T15:55:08;4.93;;;4.53;;
14377;SDS011;7272;53.668;9.578;2023-06-22T15:58:10;5.07;;;4.68;;
14377;SDS011;7272;53.668;9.578;2023-06-22T16:01:13;5.00;;;4.55;;
14377;SDS011;7272;53.668;9.578;2023-06-22T16:04:14;4.85;;;4.45;;
14377;SDS011;7272;53.668;9.578;2023-06-22T16:07:15;5.30;;;4.90;;
14377;SDS011;7272;53.668;9.578;2023-06-22T16:10:17;5.13;;;4.72;;
14377;SDS011;7272;53.668;9.578;2023-06-22T16:13:19;4.78;;;4.38;;
14377;SDS011;7272;53.668;9.578;2023-06-22T16:16:21;4.75;;;4.35;;
14377;SDS011;7272;53.668;9.578;2023-06-22T16:19:22;4.32;;;4.03;;
14377;SDS011;7272;53.668;9.578;2023-06-22T16:22:23;4.13;;;3.75;;
14377;SDS011;7272;53.668;9.578;2023-06-22T16:25:25;5.83;;;5.10;;
14377;SDS011;7272;53.668;9.578;2023-06-22T16:28:27;4.40;;;4.00;;
14377;SDS011;7272;53.668;9.578;2023-06-22T16:31:28;4.43;;;4.13;;
14377;SDS011;7272;53.668;9.578;2023-06-22T16:34:29;4.65;;;4.20;;
14377;SDS011;7272;53.668;9.578;2023-06-22T16:37:30;3.90;;;3.50;;
14377;SDS011;7272;53.668;9.578;2023-06-22T16:40:32;5.30;;;4.90;;
14377;SDS011;7272;53.668;9.578;2023-06-22T16:43:33;4.90;;;4.60;;
14377;SDS011;7272;53.668;9.578;2023-06-22T16:46:34;4.18;;;3.88;;
14377;SDS011;7272;53.668;9.578;2023-06-22T16:49:36;4.72;;;4.18;;
14377;SDS011;7272;53.668;9.578;2023-06-22T16:52:37;4.03;;;3.72;;
14377;SDS011;7272;53.668;9.578;2023-06-22T16:55:39;4.00;;;3.65;;
14377;SDS011;7272;53.668;9.578;2023-06-22T16:58:42;5.07;;;4.68;;
14377;SDS011;7272;53.668;9.578;2023-06-22T17:01:46;5.38;;;4.03;;
14377;SDS011;7272;53.668;9.578;2023-06-22T17:04:52;3.60;;;3.40;;
14377;SDS011;7272;53.668;9.578;2023-06-22T17:07:53;3.92;;;3.63;;
14377;SDS011;7272;53.668;9.578;2023-06-22T17:11:00;3.88;;;3.58;;
14377;SDS011;7272;53.668;9.578;2023-06-22T17:14:02;3.50;;;3.30;;
14377;SDS011;7272;53.668;9.578;2023-06-22T17:17:03;3.45;;;3.15;;
14377;SDS011;7272;53.668;9.578;2023-06-22T17:20:05;3.70;;;3.13;;
14377;SDS011;7272;53.668;9.578;2023-06-22T17:23:07;3.30;;;2.90;;
14377;SDS011;7272;53.668;9.578;2023-06-22T17:26:09;3.00;;;2.80;;
14377;SDS011;7272;53.668;9.578;2023-06-22T17:29:11;3.58;;;3.05;;
14377;SDS011;7272;53.668;9.578;2023-06-22T17:32:13;3.67;;;3.00;;
14377;SDS011;7272;53.668;9.578;2023-06-22T17:35:14;3.05;;;2.85;;
14377;SDS011;7272;53.668;9.578;2023-06-22T17:38:19;2.90;;;2.70;;
14377;SDS011;7272;53.668;9.578;2023-06-22T17:41:22;2.97;;;2.72;;
14377;SDS011;7272;53.668;9.578;2023-06-22T17:44:32;3.63;;;3.33;;
14377;SDS011;7272;53.668;9.578;2023-06-22T17:47:34;3.60;;;3.00;;
14377;SDS011;7272;53.668;9.578;2023-06-22T17:50:38;3.45;;;3.15;;
14377;SDS011;7272;53.668;9.578;2023-06-22T17:53:39;3.10;;;2.90;;
14377;SDS011;7272;53.668;9.578;2023-06-22T17:56:49;3.08;;;2.88;;
14377;SDS011;7272;53.668;9.578;2023-06-22T17:59:51;3.03;;;2.83;;
14377;SDS011;7272;53.668;9.578;2023-06-22T18:02:52;3.50;;;3.20;;
14377;SDS011;7272;53.668;9.578;2023-06-22T18:05:54;3.22;;;2.97;;
14377;SDS011;7272;53.668;9.578;2023-06-22T18:08:56;3.88;;;3.58;;
14377;SDS011;7272;53.668;9.578;2023-06-22T18:12:02;4.53;;;4.13;;
14377;SDS011;7272;53.668;9.578;2023-06-22T18:15:06;10.82;;;9.93;;
14377;SDS011;7272;53.668;9.578;2023-06-22T18:18:08;4.80;;;4.40;;
14377;SDS011;7272;53.668;9.578;2023-06-22T18:21:09;3.65;;;2.80;;
14377;SDS011;7272;53.668;9.578;2023-06-22T18:24:12;2.90;;;2.70;;
14377;SDS011;7272;53.668;9.578;2023-06-22T18:27:15;3.03;;;2.63;;